sensor_id;sensor_type;location;lat;lon;timestamp;P1;durP1;ratioP1;P2;durP2;ratioP2
21254;SDS011;10785;50.674;17.954;2024-03-23T00:54:12;2.95;;;2.75;;
21254;SDS011;10785;50.674;17.954;2024-03-23T00:56:39;10.25;;;4.20;;
21254;SDS011;10785;50.674;17.954;2024-03-23T00:59:06;4.47;;;4.07;;
21254;SDS011;10785;50.674;17.954;2024-03-23T01:01:33;8.68;;;3.90;;
21254;SDS011;10785;50.674;17.954;2024-03-23T01:04:01;5.45;;;3.53;;
21254;SDS011;10785;50.674;17.954;2024-03-23T01:06:28;2.50;;;2.30;;
21254;SDS011;10785;50.674;17.954;2024-03-23T01:08:56;8.70;;;4.82;;
21254;SDS011;10785;50.674;17.954;2024-03-23T01:11:24;10.18;;;5.38;;
21254;SDS011;10785;50.674;17.954;2024-03-23T01:13:53;5.07;;;3.90;;
21254;SDS011;10785;50.674;17.954;2024-03-23T01:16:21;4.72;;;3.40;;
21254;SDS011;10785;50.674;17.954;2024-03-23T01:18:49;6.55;;;4.53;;
21254;SDS011;10785;50.674;17.954;2024-03-23T01:21:16;8.80;;;4.47;;
21254;SDS011;10785;50.674;17.954;2024-03-23T01:23:43;3.53;;;3.28;;
21254;SDS011;10785;50.674;17.954;2024-03-23T01:26:10;7.13;;;5.25;;
21254;SDS011;10785;50.674;17.954;2024-03-23T01:28:39;4.68;;;3.20;;
21254;SDS011;10785;50.674;17.954;2024-03-23T01:31:05;7.43;;;4.43;;
21254;SDS011;10785;50.674;17.954;2024-03-23T01:33:33;3.10;;;2.90;;
21254;SDS011;10785;50.674;17.954;2024-03-23T01:35:59;2.45;;;2.28;;
21254;SDS011;10785;50.674;17.954;2024-03-23T01:38:27;5.68;;;4.72;;
21254;SDS011;10785;50.674;17.954;2024-03-23T01:40:56;4.03;;;2.95;;
21254;SDS011;10785;50.674;17.954;2024-03-23T01:43:24;9.90;;;4.35;;
21254;SDS011;10785;50.674;17.954;2024-03-23T01:45:52;8.70;;;7.18;;
21254;SDS011;10785;50.674;17.954;2024-03-23T01:48:20;5.78;;;4.60;;
21254;SDS011;10785;50.674;17.954;2024-03-23T01:50:47;4.35;;;3.25;;
21254;SDS011;10785;50.674;17.954;2024-03-23T01:53:15;4.93;;;4.10;;
21254;SDS011;10785;50.674;17.954;2024-03-23T01:55:43;4.03;;;3.65;;
21254;SDS011;10785;50.674;17.954;2024-03-23T01:58:11;4.25;;;3.95;;
21254;SDS011;10785;50.674;17.954;2024-03-23T02:00:38;7.57;;;3.95;;
21254;SDS011;10785;50.674;17.954;2024-03-23T02:05:52;2.47;;;2.38;;
21254;SDS011;10785;50.674;17.954;2024-03-23T02:08:21;6.65;;;5.35;;
21254;SDS011;10785;50.674;17.954;2024-03-23T02:10:48;4.80;;;4.50;;
21254;SDS011;10785;50.674;17.954;2024-03-23T02:13:18;12.20;;;4.05;;
21254;SDS011;10785;50.674;17.954;2024-03-23T02:15:47;5.07;;;4.57;;
21254;SDS011;10785;50.674;17.954;2024-03-23T02:18:15;3.15;;;2.92;;
21254;SDS011;10785;50.674;17.954;2024-03-23T02:20:43;4.35;;;4.00;;
21254;SDS011;10785;50.674;17.954;2024-03-23T02:23:15;4.63;;;3.85;;
21254;SDS011;10785;50.674;17.954;2024-03-23T02:25:42;9.35;;;3.60;;
21254;SDS011;10785;50.674;17.954;2024-03-23T02:28:10;5.03;;;4.63;;
21254;SDS011;10785;50.674;17.954;2024-03-23T02:30:37;3.50;;;3.25;;
21254;SDS011;10785;50.674;17.954;2024-03-23T02:33:04;4.85;;;3.45;;
21254;SDS011;10785;50.674;17.954;2024-03-23T02:35:32;5.13;;;4.72;;
21254;SDS011;10785;50.674;17.954;2024-03-23T02:37:59;5.10;;;3.80;;
21254;SDS011;10785;50.674;17.954;2024-03-23T02:40:28;3.25;;;3.05;;
21254;SDS011;10785;50.674;17.954;2024-03-23T02:42:55;5.43;;;5.03;;
21254;SDS011;10785;50.674;17.954;2024-03-23T02:45:23;4.57;;;3.95;;
21254;SDS011;10785;50.674;17.954;2024-03-23T02:47:50;3.55;;;3.22;;
21254;SDS011;10785;50.674;17.954;2024-03-23T02:50:18;4.75;;;4.45;;
21254;SDS011;10785;50.674;17.954;2024-03-23T02:52:45;2.90;;;2.70;;
21254;SDS011;10785;50.674;17.954;2024-03-23T02:55:12;3.92;;;3.72;;
21254;SDS011;10785;50.674;17.954;2024-03-23T02:57:41;3.35;;;3.13;;
21254;SDS011;10785;50.674;17.954;2024-03-23T03:00:09;7.43;;;6.72;;
21254;SDS011;10785;50.674;17.954;2024-03-23T03:02:36;7.82;;;5.20;;
21254;SDS011;10785;50.674;17.954;2024-03-23T03:05:04;3.00;;;2.72;;
21254;SDS011;10785;50.674;17.954;2024-03-23T03:07:32;3.00;;;2.78;;
21254;SDS011;10785;50.674;17.954;2024-03-23T03:09:59;2.85;;;2.65;;
21254;SDS011;10785;50.674;17.954;2024-03-23T03:12:26;5.10;;;3.92;;
21254;SDS011;10785;50.674;17.954;2024-03-23T03:14:55;2.53;;;2.42;;
21254;SDS011;10785;50.674;17.954;2024-03-23T03:17:21;10.68;;;4.38;;
21254;SDS011;10785;50.674;17.954;2024-03-23T03:19:49;2.10;;;2.00;;
21254;SDS011;10785;50.674;17.954;2024-03-23T03:22:21;3.08;;;2.88;;
21254;SDS011;10785;50.674;17.954;2024-03-23T03:24:49;3.92;;;3.58;;
21254;SDS011;10785;50.674;17.954;2024-03-23T03:27:16;2.72;;;2.53;;
21254;SDS011;10785;50.674;17.954;2024-03-23T03:29:43;4.40;;;3.00;;
21254;SDS011;10785;50.674;17.954;2024-03-23T03:32:11;3.25;;;3.05;;
21254;SDS011;10785;50.674;17.954;2024-03-23T03:34:39;3.60;;;3.30;;
21254;SDS011;10785;50.674;17.954;2024-03-23T03:37:06;6.60;;;4.53;;
21254;SDS011;10785;50.674;17.954;2024-03-23T03:39:33;3.28;;;3.15;;
21254;SDS011;10785;50.674;17.954;2024-03-23T03:42:00;3.60;;;3.30;;
21254;SDS011;10785;50.674;17.954;2024-03-23T03:44:32;8.68;;;2.75;;
21254;SDS011;10785;50.674;17.954;2024-03-23T03:46:59;2.10;;;2.00;;
21254;SDS011;10785;50.674;17.954;2024-03-23T03:49:28;2.97;;;2.78;;
21254;SDS011;10785;50.674;17.954;2024-03-23T03:51:54;4.03;;;3.72;;
21254;SDS011;10785;50.674;17.954;2024-03-23T03:54:22;2.53;;;2.33;;
21254;SDS011;10785;50.674;17.954;2024-03-23T03:56:48;2.65;;;2.42;;
21254;SDS011;10785;50.674;17.954;2024-03-23T03:59:17;2.38;;;2.28;;
21254;SDS011;10785;50.674;17.954;2024-03-23T04:01:43;2.40;;;2.28;;
21254;SDS011;10785;50.674;17.954;2024-03-23T04:04:11;2.35;;;2.25;;
21254;SDS011;10785;50.674;17.954;2024-03-23T04:06:39;3.15;;;2.95;;
21254;SDS011;10785;50.674;17.954;2024-03-23T04:09:06;4.40;;;4.15;;
21254;SDS011;10785;50.674;17.954;2024-03-23T04:11:33;5.97;;;3.42;;
21254;SDS011;10785;50.674;17.954;2024-03-23T04:14:01;4.47;;;4.07;;
21254;SDS011;10785;50.674;17.954;2024-03-23T04:16:27;5.53;;;2.40;;
21254;SDS011;10785;50.674;17.954;2024-03-23T04:18:55;3.83;;;3.55;;
21254;SDS011;10785;50.674;17.954;2024-03-23T04:21:22;3.25;;;1.95;;
21254;SDS011;10785;50.674;17.954;2024-03-23T04:23:51;3.72;;;3.53;;
21254;SDS011;10785;50.674;17.954;2024-03-23T04:26:18;2.75;;;2.55;;
21254;SDS011;10785;50.674;17.954;2024-03-23T04:28:46;4.20;;;3.83;;
21254;SDS011;10785;50.674;17.954;2024-03-23T04:31:12;4.57;;;1.73;;
21254;SDS011;10785;50.674;17.954;2024-03-23T04:33:40;2.08;;;1.98;;
21254;SDS011;10785;50.674;17.954;2024-03-23T04:36:06;3.53;;;2.60;;
21254;SDS011;10785;50.674;17.954;2024-03-23T04:38:35;3.13;;;2.92;;
21254;SDS011;10785;50.674;17.954;2024-03-23T04:41:04;3.30;;;3.05;;
21254;SDS011;10785;50.674;17.954;2024-03-23T04:43:31;1.92;;;1.77;;
21254;SDS011;10785;50.674;17.954;2024-03-23T04:45:59;1.38;;;1.35;;
21254;SDS011;10785;50.674;17.954;2024-03-23T04:48:27;2.47;;;2.38;;
21254;SDS011;10785;50.674;17.954;2024-03-23T04:50:57;4.55;;;2.42;;
21254;SDS011;10785;50.674;17.954;2024-03-23T04:53:25;3.70;;;2.22;;
21254;SDS011;10785;50.674;17.954;2024-03-23T04:55:55;1.70;;;1.60;;
21254;SDS011;10785;50.674;17.954;2024-03-23T04:58:23;3.47;;;2.42;;
21254;SDS011;10785;50.674;17.954;2024-03-23T05:00:54;8.40;;;4.47;;
21254;SDS011;10785;50.674;17.954;2024-03-23T05:03:21;10.13;;;4.00;;
21254;SDS011;10785;50.674;17.954;2024-03-23T05:05:49;2.53;;;2.28;;
21254;SDS011;10785;50.674;17.954;2024-03-23T05:08:16;3.50;;;2.60;;
21254;SDS011;10785;50.674;17.954;2024-03-23T05:10:44;2.33;;;1.63;;
21254;SDS011;10785;50.674;17.954;2024-03-23T05:13:11;4.43;;;4.07;;
21254;SDS011;10785;50.674;17.954;2024-03-23T05:15:40;1.17;;;1.17;;
21254;SDS011;10785;50.674;17.954;2024-03-23T05:18:07;4.35;;;3.72;;
21254;SDS011;10785;50.674;17.954;2024-03-23T05:20:34;2.80;;;2.60;;
21254;SDS011;10785;50.674;17.954;2024-03-23T05:23:01;9.93;;;3.00;;
21254;SDS011;10785;50.674;17.954;2024-03-23T05:25:28;3.25;;;3.05;;
21254;SDS011;10785;50.674;17.954;2024-03-23T05:27:55;4.78;;;3.35;;
21254;SDS011;10785;50.674;17.954;2024-03-23T05:30:22;2.22;;;2.13;;
21254;SDS011;10785;50.674;17.954;2024-03-23T05:32:57;2.83;;;2.55;;
21254;SDS011;10785;50.674;17.954;2024-03-23T05:35:25;4.72;;;3.33;;
21254;SDS011;10785;50.674;17.954;2024-03-23T05:37:51;2.45;;;2.25;;
21254;SDS011;10785;50.674;17.954;2024-03-23T05:40:19;3.45;;;2.30;;
21254;SDS011;10785;50.674;17.954;2024-03-23T05:42:46;12.50;;;4.18;;
21254;SDS011;10785;50.674;17.954;2024-03-23T05:45:14;2.58;;;2.40;;
21254;SDS011;10785;50.674;17.954;2024-03-23T05:47:44;2.30;;;2.10;;
21254;SDS011;10785;50.674;17.954;2024-03-23T05:50:13;5.20;;;2.60;;
21254;SDS011;10785;50.674;17.954;2024-03-23T05:52:40;2.05;;;1.95;;
21254;SDS011;10785;50.674;17.954;2024-03-23T05:55:09;5.47;;;3.75;;
21254;SDS011;10785;50.674;17.954;2024-03-23T05:57:36;3.35;;;3.13;;
21254;SDS011;10785;50.674;17.954;2024-03-23T06:00:03;25.50;;;3.90;;
21254;SDS011;10785;50.674;17.954;2024-03-23T06:02:37;1.70;;;1.60;;
21254;SDS011;10785;50.674;17.954;2024-03-23T06:05:05;2.95;;;2.75;;
21254;SDS011;10785;50.674;17.954;2024-03-23T06:07:33;3.22;;;2.92;;
21254;SDS011;10785;50.674;17.954;2024-03-23T06:10:01;2.67;;;2.47;;
21254;SDS011;10785;50.674;17.954;2024-03-23T06:12:28;3.35;;;2.85;;
21254;SDS011;10785;50.674;17.954;2024-03-23T06:14:55;7.43;;;5.07;;
21254;SDS011;10785;50.674;17.954;2024-03-23T06:17:22;3.53;;;2.83;;
21254;SDS011;10785;50.674;17.954;2024-03-23T06:19:50;4.18;;;3.88;;
21254;SDS011;10785;50.674;17.954;2024-03-23T06:25:11;2.25;;;2.15;;
21254;SDS011;10785;50.674;17.954;2024-03-23T06:27:38;3.13;;;2.80;;
21254;SDS011;10785;50.674;17.954;2024-03-23T06:30:06;14.98;;;2.78;;
21254;SDS011;10785;50.674;17.954;2024-03-23T06:32:33;3.03;;;2.83;;
21254;SDS011;10785;50.674;17.954;2024-03-23T06:35:01;3.72;;;2.88;;
21254;SDS011;10785;50.674;17.954;2024-03-23T06:37:33;6.40;;;3.88;;
21254;SDS011;10785;50.674;17.954;2024-03-23T06:40:03;2.05;;;1.95;;
21254;SDS011;10785;50.674;17.954;2024-03-23T06:42:31;4.43;;;2.67;;
21254;SDS011;10785;50.674;17.954;2024-03-23T06:44:59;2.65;;;2.08;;
21254;SDS011;10785;50.674;17.954;2024-03-23T06:47:26;6.20;;;2.95;;
21254;SDS011;10785;50.674;17.954;2024-03-23T06:49:53;7.00;;;2.75;;
21254;SDS011;10785;50.674;17.954;2024-03-23T06:52:20;20.40;;;2.80;;
21254;SDS011;10785;50.674;17.954;2024-03-23T06:54:47;2.00;;;1.90;;
21254;SDS011;10785;50.674;17.954;2024-03-23T06:57:15;5.47;;;2.67;;
21254;SDS011;10785;50.674;17.954;2024-03-23T06:59:43;1.30;;;1.30;;
21254;SDS011;10785;50.674;17.954;2024-03-23T07:02:10;2.28;;;1.60;;
21254;SDS011;10785;50.674;17.954;2024-03-23T07:04:37;6.43;;;3.45;;
21254;SDS011;10785;50.674;17.954;2024-03-23T07:07:05;3.97;;;3.25;;
21254;SDS011;10785;50.674;17.954;2024-03-23T07:09:32;3.88;;;3.30;;
21254;SDS011;10785;50.674;17.954;2024-03-23T07:11:59;3.72;;;3.35;;
21254;SDS011;10785;50.674;17.954;2024-03-23T07:14:28;1.65;;;1.55;;
21254;SDS011;10785;50.674;17.954;2024-03-23T07:16:55;1.60;;;1.50;;
21254;SDS011;10785;50.674;17.954;2024-03-23T07:19:22;7.15;;;2.83;;
21254;SDS011;10785;50.674;17.954;2024-03-23T07:21:51;9.77;;;3.92;;
21254;SDS011;10785;50.674;17.954;2024-03-23T07:24:19;7.20;;;2.88;;
21254;SDS011;10785;50.674;17.954;2024-03-23T07:26:46;3.33;;;2.70;;
21254;SDS011;10785;50.674;17.954;2024-03-23T07:29:13;3.10;;;1.45;;
21254;SDS011;10785;50.674;17.954;2024-03-23T07:31:42;2.17;;;1.65;;
21254;SDS011;10785;50.674;17.954;2024-03-23T07:34:09;8.05;;;4.38;;
21254;SDS011;10785;50.674;17.954;2024-03-23T07:36:36;3.58;;;2.45;;
21254;SDS011;10785;50.674;17.954;2024-03-23T07:39:03;2.60;;;2.30;;
21254;SDS011;10785;50.674;17.954;2024-03-23T07:41:30;2.83;;;2.22;;
21254;SDS011;10785;50.674;17.954;2024-03-23T07:43:58;6.50;;;3.58;;
21254;SDS011;10785;50.674;17.954;2024-03-23T07:46:24;3.55;;;2.55;;
21254;SDS011;10785;50.674;17.954;2024-03-23T07:48:53;2.20;;;2.05;;
21254;SDS011;10785;50.674;17.954;2024-03-23T07:51:20;8.38;;;2.75;;
21254;SDS011;10785;50.674;17.954;2024-03-23T07:53:49;3.28;;;3.03;;
21254;SDS011;10785;50.674;17.954;2024-03-23T07:56:16;3.63;;;2.60;;
21254;SDS011;10785;50.674;17.954;2024-03-23T07:58:44;2.42;;;2.22;;
21254;SDS011;10785;50.674;17.954;2024-03-23T08:01:13;3.78;;;1.90;;
21254;SDS011;10785;50.674;17.954;2024-03-23T08:03:43;3.65;;;2.22;;
21254;SDS011;10785;50.674;17.954;2024-03-23T08:06:12;1.83;;;1.67;;
21254;SDS011;10785;50.674;17.954;2024-03-23T08:08:41;3.08;;;2.33;;
21254;SDS011;10785;50.674;17.954;2024-03-23T08:11:09;2.15;;;2.03;;
21254;SDS011;10785;50.674;17.954;2024-03-23T08:13:38;3.47;;;3.05;;
21254;SDS011;10785;50.674;17.954;2024-03-23T08:16:06;2.05;;;1.63;;
21254;SDS011;10785;50.674;17.954;2024-03-23T08:18:34;2.95;;;2.63;;
21254;SDS011;10785;50.674;17.954;2024-03-23T08:21:01;2.42;;;1.20;;
21254;SDS011;10785;50.674;17.954;2024-03-23T08:23:31;3.13;;;2.20;;
21254;SDS011;10785;50.674;17.954;2024-03-23T08:26:00;3.30;;;3.05;;
21254;SDS011;10785;50.674;17.954;2024-03-23T08:28:28;7.75;;;2.50;;
21254;SDS011;10785;50.674;17.954;2024-03-23T08:30:55;2.55;;;2.22;;
21254;SDS011;10785;50.674;17.954;2024-03-23T08:33:23;2.13;;;1.92;;
21254;SDS011;10785;50.674;17.954;2024-03-23T08:35:53;3.10;;;1.83;;
21254;SDS011;10785;50.674;17.954;2024-03-23T08:38:22;1.85;;;1.75;;
21254;SDS011;10785;50.674;17.954;2024-03-23T08:40:57;5.95;;;2.85;;
21254;SDS011;10785;50.674;17.954;2024-03-23T08:43:25;1.48;;;1.38;;
21254;SDS011;10785;50.674;17.954;2024-03-23T08:45:52;2.00;;;1.85;;
21254;SDS011;10785;50.674;17.954;2024-03-23T08:48:20;3.10;;;2.47;;
21254;SDS011;10785;50.674;17.954;2024-03-23T08:50:47;1.90;;;1.55;;
21254;SDS011;10785;50.674;17.954;2024-03-23T08:53:24;1.67;;;1.25;;
21254;SDS011;10785;50.674;17.954;2024-03-23T08:55:53;2.05;;;1.75;;
21254;SDS011;10785;50.674;17.954;2024-03-23T08:58:23;2.22;;;0.98;;
21254;SDS011;10785;50.674;17.954;2024-03-23T09:00:51;2.78;;;2.50;;
21254;SDS011;10785;50.674;17.954;2024-03-23T09:03:18;2.05;;;1.90;;
21254;SDS011;10785;50.674;17.954;2024-03-23T09:05:45;8.02;;;2.45;;
21254;SDS011;10785;50.674;17.954;2024-03-23T09:08:13;2.03;;;1.15;;
21254;SDS011;10785;50.674;17.954;2024-03-23T09:10:40;2.40;;;1.95;;
21254;SDS011;10785;50.674;17.954;2024-03-23T09:13:08;13.93;;;2.00;;
21254;SDS011;10785;50.674;17.954;2024-03-23T09:15:44;6.55;;;2.50;;
21254;SDS011;10785;50.674;17.954;2024-03-23T09:18:13;1.92;;;1.30;;
21254;SDS011;10785;50.674;17.954;2024-03-23T09:20:40;1.23;;;1.17;;
21254;SDS011;10785;50.674;17.954;2024-03-23T09:23:08;4.82;;;3.28;;
21254;SDS011;10785;50.674;17.954;2024-03-23T09:25:38;2.20;;;1.33;;
21254;SDS011;10785;50.674;17.954;2024-03-23T09:28:06;2.60;;;1.38;;
21254;SDS011;10785;50.674;17.954;2024-03-23T09:30:34;4.35;;;1.75;;
21254;SDS011;10785;50.674;17.954;2024-03-23T09:33:08;2.30;;;1.77;;
21254;SDS011;10785;50.674;17.954;2024-03-23T09:35:36;4.45;;;1.92;;
21254;SDS011;10785;50.674;17.954;2024-03-23T09:38:04;1.38;;;1.27;;
21254;SDS011;10785;50.674;17.954;2024-03-23T09:40:31;1.17;;;1.10;;
21254;SDS011;10785;50.674;17.954;2024-03-23T09:42:58;1.20;;;1.17;;
21254;SDS011;10785;50.674;17.954;2024-03-23T09:45:26;2.15;;;1.52;;
21254;SDS011;10785;50.674;17.954;2024-03-23T09:47:56;0.98;;;0.98;;
21254;SDS011;10785;50.674;17.954;2024-03-23T09:50:23;1.35;;;1.25;;
21254;SDS011;10785;50.674;17.954;2024-03-23T09:52:51;1.77;;;1.35;;
21254;SDS011;10785;50.674;17.954;2024-03-23T09:55:18;2.80;;;1.48;;
21254;SDS011;10785;50.674;17.954;2024-03-23T09:57:45;1.65;;;1.55;;
21254;SDS011;10785;50.674;17.954;2024-03-23T10:00:12;1.98;;;1.83;;
21254;SDS011;10785;50.674;17.954;2024-03-23T10:02:41;2.40;;;2.08;;
21254;SDS011;10785;50.674;17.954;2024-03-23T10:05:21;1.63;;;1.52;;
21254;SDS011;10785;50.674;17.954;2024-03-23T10:07:49;2.58;;;1.27;;
21254;SDS011;10785;50.674;17.954;2024-03-23T10:10:16;2.53;;;1.55;;
21254;SDS011;10785;50.674;17.954;2024-03-23T10:12:45;2.30;;;2.05;;
21254;SDS011;10785;50.674;17.954;2024-03-23T10:15:20;3.00;;;2.65;;
21254;SDS011;10785;50.674;17.954;2024-03-23T10:17:47;1.25;;;1.20;;
21254;SDS011;10785;50.674;17.954;2024-03-23T10:20:18;0.90;;;0.90;;
21254;SDS011;10785;50.674;17.954;2024-03-23T10:22:48;1.15;;;1.08;;
21254;SDS011;10785;50.674;17.954;2024-03-23T10:25:17;1.95;;;1.70;;
21254;SDS011;10785;50.674;17.954;2024-03-23T10:27:55;1.88;;;1.20;;
21254;SDS011;10785;50.674;17.954;2024-03-23T10:30:26;0.68;;;0.68;;
21254;SDS011;10785;50.674;17.954;2024-03-23T10:33:06;2.25;;;1.10;;
21254;SDS011;10785;50.674;17.954;2024-03-23T10:35:36;0.70;;;0.70;;
21254;SDS011;10785;50.674;17.954;2024-03-23T10:38:04;1.30;;;1.15;;
21254;SDS011;10785;50.674;17.954;2024-03-23T10:40:33;1.58;;;1.48;;
21254;SDS011;10785;50.674;17.954;2024-03-23T10:43:02;0.60;;;0.60;;
21254;SDS011;10785;50.674;17.954;2024-03-23T10:45:30;2.97;;;1.73;;
21254;SDS011;10785;50.674;17.954;2024-03-23T10:47:57;1.65;;;1.15;;
21254;SDS011;10785;50.674;17.954;2024-03-23T10:50:25;1.67;;;1.58;;
21254;SDS011;10785;50.674;17.954;2024-03-23T10:52:54;2.97;;;1.40;;
21254;SDS011;10785;50.674;17.954;2024-03-23T10:55:25;1.38;;;1.27;;
21254;SDS011;10785;50.674;17.954;2024-03-23T10:57:53;1.05;;;1.00;;
21254;SDS011;10785;50.674;17.954;2024-03-23T11:00:23;0.80;;;0.80;;
21254;SDS011;10785;50.674;17.954;2024-03-23T11:02:50;1.33;;;1.08;;
21254;SDS011;10785;50.674;17.954;2024-03-23T11:05:28;1.70;;;0.75;;
21254;SDS011;10785;50.674;17.954;2024-03-23T11:07:56;1.60;;;1.02;;
21254;SDS011;10785;50.674;17.954;2024-03-23T11:10:25;2.63;;;1.35;;
21254;SDS011;10785;50.674;17.954;2024-03-23T11:12:52;0.90;;;0.90;;
21254;SDS011;10785;50.674;17.954;2024-03-23T11:15:20;4.30;;;1.88;;
21254;SDS011;10785;50.674;17.954;2024-03-23T11:20:33;1.23;;;1.05;;
21254;SDS011;10785;50.674;17.954;2024-03-23T11:23:02;1.65;;;1.55;;
21254;SDS011;10785;50.674;17.954;2024-03-23T11:25:30;2.38;;;1.95;;
21254;SDS011;10785;50.674;17.954;2024-03-23T11:27:57;1.35;;;1.17;;
21254;SDS011;10785;50.674;17.954;2024-03-23T11:30:37;1.52;;;1.42;;
21254;SDS011;10785;50.674;17.954;2024-03-23T11:33:04;0.50;;;0.50;;
21254;SDS011;10785;50.674;17.954;2024-03-23T11:35:33;0.40;;;0.40;;
21254;SDS011;10785;50.674;17.954;2024-03-23T11:38:02;0.75;;;0.75;;
21254;SDS011;10785;50.674;17.954;2024-03-23T11:40:31;0.40;;;0.40;;
21254;SDS011;10785;50.674;17.954;2024-03-23T11:42:58;0.68;;;0.68;;
21254;SDS011;10785;50.674;17.954;2024-03-23T11:45:26;0.22;;;0.22;;
21254;SDS011;10785;50.674;17.954;2024-03-23T11:48:07;0.25;;;0.25;;
21254;SDS011;10785;50.674;17.954;2024-03-23T11:50:36;0.47;;;0.28;;
21254;SDS011;10785;50.674;17.954;2024-03-23T11:53:13;0.43;;;0.30;;
21254;SDS011;10785;50.674;17.954;2024-03-23T11:55:46;0.50;;;0.50;;
21254;SDS011;10785;50.674;17.954;2024-03-23T11:58:14;0.68;;;0.50;;
21254;SDS011;10785;50.674;17.954;2024-03-23T12:00:42;1.33;;;1.13;;
21254;SDS011;10785;50.674;17.954;2024-03-23T12:03:16;0.80;;;0.80;;
21254;SDS011;10785;50.674;17.954;2024-03-23T12:05:47;2.42;;;0.93;;
21254;SDS011;10785;50.674;17.954;2024-03-23T12:08:21;2.72;;;0.75;;
21254;SDS011;10785;50.674;17.954;2024-03-23T12:10:50;6.05;;;0.82;;
21254;SDS011;10785;50.674;17.954;2024-03-23T12:13:18;0.77;;;0.70;;
21254;SDS011;10785;50.674;17.954;2024-03-23T12:15:49;2.47;;;0.82;;
21254;SDS011;10785;50.674;17.954;2024-03-23T12:18:17;1.45;;;0.98;;
21254;SDS011;10785;50.674;17.954;2024-03-23T12:20:50;1.05;;;0.93;;
21254;SDS011;10785;50.674;17.954;2024-03-23T12:23:16;2.13;;;1.40;;
21254;SDS011;10785;50.674;17.954;2024-03-23T12:25:45;0.77;;;0.77;;
21254;SDS011;10785;50.674;17.954;2024-03-23T12:28:15;1.80;;;1.40;;
21254;SDS011;10785;50.674;17.954;2024-03-23T12:30:43;4.10;;;1.25;;
21254;SDS011;10785;50.674;17.954;2024-03-23T12:33:09;1.95;;;1.15;;
21254;SDS011;10785;50.674;17.954;2024-03-23T12:35:37;1.60;;;1.50;;
21254;SDS011;10785;50.674;17.954;2024-03-23T12:38:04;1.70;;;1.13;;
21254;SDS011;10785;50.674;17.954;2024-03-23T12:40:31;4.57;;;0.60;;
21254;SDS011;10785;50.674;17.954;2024-03-23T12:42:59;1.23;;;1.02;;
21254;SDS011;10785;50.674;17.954;2024-03-23T12:45:27;0.38;;;0.38;;
21254;SDS011;10785;50.674;17.954;2024-03-23T12:47:54;1.35;;;1.30;;
21254;SDS011;10785;50.674;17.954;2024-03-23T12:50:21;1.30;;;1.23;;
21254;SDS011;10785;50.674;17.954;2024-03-23T12:52:48;0.90;;;0.90;;
21254;SDS011;10785;50.674;17.954;2024-03-23T12:55:16;1.85;;;1.75;;
21254;SDS011;10785;50.674;17.954;2024-03-23T12:57:43;1.20;;;1.20;;
21254;SDS011;10785;50.674;17.954;2024-03-23T13:00:13;1.40;;;1.30;;
21254;SDS011;10785;50.674;17.954;2024-03-23T13:02:41;1.13;;;1.10;;
21254;SDS011;10785;50.674;17.954;2024-03-23T13:05:09;1.52;;;1.35;;
21254;SDS011;10785;50.674;17.954;2024-03-23T13:07:36;0.50;;;0.50;;
21254;SDS011;10785;50.674;17.954;2024-03-23T13:10:04;1.13;;;1.02;;
21254;SDS011;10785;50.674;17.954;2024-03-23T13:12:31;1.05;;;0.98;;
21254;SDS011;10785;50.674;17.954;2024-03-23T13:14:59;0.65;;;0.65;;
21254;SDS011;10785;50.674;17.954;2024-03-23T13:17:33;0.88;;;0.88;;
21254;SDS011;10785;50.674;17.954;2024-03-23T13:20:01;1.05;;;1.05;;
21254;SDS011;10785;50.674;17.954;2024-03-23T13:22:31;1.60;;;0.93;;
21254;SDS011;10785;50.674;17.954;2024-03-23T13:24:59;0.98;;;0.98;;
21254;SDS011;10785;50.674;17.954;2024-03-23T13:27:26;0.68;;;0.68;;
21254;SDS011;10785;50.674;17.954;2024-03-23T13:29:53;0.90;;;0.90;;
21254;SDS011;10785;50.674;17.954;2024-03-23T13:32:20;1.48;;;1.05;;
21254;SDS011;10785;50.674;17.954;2024-03-23T13:34:49;0.60;;;0.60;;
21254;SDS011;10785;50.674;17.954;2024-03-23T13:37:16;0.50;;;0.50;;
21254;SDS011;10785;50.674;17.954;2024-03-23T13:39:43;0.60;;;0.60;;
21254;SDS011;10785;50.674;17.954;2024-03-23T13:42:10;0.55;;;0.55;;
21254;SDS011;10785;50.674;17.954;2024-03-23T13:44:38;0.90;;;0.90;;
21254;SDS011;10785;50.674;17.954;2024-03-23T13:47:05;0.70;;;0.70;;
21254;SDS011;10785;50.674;17.954;2024-03-23T13:49:32;0.50;;;0.50;;
21254;SDS011;10785;50.674;17.954;2024-03-23T13:52:01;1.33;;;1.23;;
21254;SDS011;10785;50.674;17.954;2024-03-23T13:54:28;0.95;;;0.95;;
21254;SDS011;10785;50.674;17.954;2024-03-23T13:56:55;0.52;;;0.52;;
21254;SDS011;10785;50.674;17.954;2024-03-23T13:59:23;0.73;;;0.73;;
21254;SDS011;10785;50.674;17.954;2024-03-23T14:01:50;0.88;;;0.88;;
21254;SDS011;10785;50.674;17.954;2024-03-23T14:04:18;0.68;;;0.68;;
21254;SDS011;10785;50.674;17.954;2024-03-23T14:06:46;1.00;;;0.90;;
21254;SDS011;10785;50.674;17.954;2024-03-23T14:09:15;0.60;;;0.60;;
21254;SDS011;10785;50.674;17.954;2024-03-23T14:11:47;1.17;;;0.73;;
21254;SDS011;10785;50.674;17.954;2024-03-23T14:14:15;2.10;;;0.93;;
21254;SDS011;10785;50.674;17.954;2024-03-23T14:16:43;1.10;;;1.00;;
21254;SDS011;10785;50.674;17.954;2024-03-23T14:19:10;0.90;;;0.90;;
21254;SDS011;10785;50.674;17.954;2024-03-23T14:21:37;0.52;;;0.52;;
21254;SDS011;10785;50.674;17.954;2024-03-23T14:24:05;0.65;;;0.65;;
21254;SDS011;10785;50.674;17.954;2024-03-23T14:26:34;0.70;;;0.45;;
21254;SDS011;10785;50.674;17.954;2024-03-23T14:29:02;0.50;;;0.50;;
21254;SDS011;10785;50.674;17.954;2024-03-23T14:31:29;0.47;;;0.47;;
21254;SDS011;10785;50.674;17.954;2024-03-23T14:33:57;0.70;;;0.70;;
21254;SDS011;10785;50.674;17.954;2024-03-23T14:36:26;0.88;;;0.88;;
21254;SDS011;10785;50.674;17.954;2024-03-23T14:38:53;0.80;;;0.80;;
21254;SDS011;10785;50.674;17.954;2024-03-23T14:41:20;0.68;;;0.68;;
21254;SDS011;10785;50.674;17.954;2024-03-23T14:43:49;0.60;;;0.60;;
21254;SDS011;10785;50.674;17.954;2024-03-23T14:46:16;1.10;;;1.08;;
21254;SDS011;10785;50.674;17.954;2024-03-23T14:48:45;1.95;;;1.20;;
21254;SDS011;10785;50.674;17.954;2024-03-23T14:51:12;0.90;;;0.82;;
21254;SDS011;10785;50.674;17.954;2024-03-23T14:53:40;2.08;;;1.08;;
21254;SDS011;10785;50.674;17.954;2024-03-23T14:56:08;0.93;;;0.93;;
21254;SDS011;10785;50.674;17.954;2024-03-23T14:58:37;1.08;;;1.08;;
21254;SDS011;10785;50.674;17.954;2024-03-23T15:01:06;0.90;;;0.90;;
21254;SDS011;10785;50.674;17.954;2024-03-23T15:03:36;0.60;;;0.60;;
21254;SDS011;10785;50.674;17.954;2024-03-23T15:06:06;1.30;;;1.25;;
21254;SDS011;10785;50.674;17.954;2024-03-23T15:08:36;1.17;;;1.17;;
21254;SDS011;10785;50.674;17.954;2024-03-23T15:11:05;1.75;;;1.65;;
21254;SDS011;10785;50.674;17.954;2024-03-23T15:13:33;1.25;;;1.15;;
21254;SDS011;10785;50.674;17.954;2024-03-23T15:15:59;0.80;;;0.80;;
21254;SDS011;10785;50.674;17.954;2024-03-23T15:18:30;1.00;;;1.00;;
21254;SDS011;10785;50.674;17.954;2024-03-23T15:20:58;0.90;;;0.90;;
21254;SDS011;10785;50.674;17.954;2024-03-23T15:23:28;0.90;;;0.90;;
21254;SDS011;10785;50.674;17.954;2024-03-23T15:25:56;0.98;;;0.98;;
21254;SDS011;10785;50.674;17.954;2024-03-23T15:28:24;0.82;;;0.82;;
21254;SDS011;10785;50.674;17.954;2024-03-23T15:30:53;1.00;;;1.00;;
21254;SDS011;10785;50.674;17.954;2024-03-23T15:33:25;1.27;;;1.23;;
21254;SDS011;10785;50.674;17.954;2024-03-23T15:35:53;0.80;;;0.80;;
21254;SDS011;10785;50.674;17.954;2024-03-23T15:38:25;3.03;;;0.90;;
21254;SDS011;10785;50.674;17.954;2024-03-23T15:40:51;0.95;;;0.95;;